Time;durP1;ratioP1;P1;durP2;ratioP2;P2;SDS_P1;SDS_P2;PMS_P1;PMS_P2;Temp;Humidity;BMP_temperature;BMP_pressure;BME280_temperature;BME280_humidity;BME280_pressure;Samples;Min_cycle;Max_cycle;Signal;HPM_P1;HPM_P2
2024/02/20 00:00:11;;;;;;;22.98;11.15;;;8.70;99.90;;;;;;5010384;28;20038;-79
2024/02/20 00:02:38;;;;;;;20.95;11.32;;;8.80;99.90;;;;;;5009953;28;21386;-79
2024/02/20 00:05:08;;;;;;;19.77;11.55;;;8.90;99.90;;;;;;5009806;28;20045;-79
2024/02/20 00:07:34;;;;;;;22.55;12.13;;;8.80;99.90;;;;;;5008603;28;20039;-79
2024/02/20 00:10:00;;;;;;;22.45;13.10;;;8.70;99.90;;;;;;5009182;28;20056;-79
2024/02/20 00:12:25;;;;;;;22.95;13.05;;;8.60;99.90;;;;;;5010024;28;20598;-79
2024/02/20 00:14:51;;;;;;;21.13;12.38;;;8.50;99.90;;;;;;5009439;28;20059;-79
2024/02/20 00:17:17;;;;;;;21.58;12.10;;;8.40;99.90;;;;;;5012779;28;20087;-79
2024/02/20 00:19:43;;;;;;;14.23;7.47;;;8.40;99.90;;;;;;5013549;28;20080;-79
2024/02/20 00:22:09;;;;;;;18.60;9.35;;;8.40;99.90;;;;;;5015129;28;20041;-78
2024/02/20 00:24:35;;;;;;;11.73;7.05;;;8.30;99.90;;;;;;5014047;28;20041;-80
2024/02/20 00:27:00;;;;;;;16.45;10.35;;;8.20;99.90;;;;;;5013005;28;20032;-79
2024/02/20 00:29:26;;;;;;;23.35;11.65;;;8.20;99.90;;;;;;5013319;28;20065;-79
2024/02/20 00:31:52;;;;;;;24.42;13.10;;;8.20;99.90;;;;;;5013926;28;20463;-79
2024/02/20 00:34:18;;;;;;;25.20;13.65;;;8.30;99.90;;;;;;5014279;28;20063;-82
2024/02/20 00:36:44;;;;;;;24.00;12.88;;;8.40;99.90;;;;;;5013674;28;20060;-79
2024/02/20 00:39:12;;;;;;;26.75;14.48;;;8.40;99.90;;;;;;5014366;28;20037;-80
2024/02/20 00:41:38;;;;;;;30.63;18.50;;;8.40;99.90;;;;;;5014014;28;20037;-79
2024/02/20 00:44:04;;;;;;;33.20;17.35;;;8.30;99.90;;;;;;5013179;28;20095;-79
2024/02/20 00:46:30;;;;;;;34.28;19.02;;;8.40;99.90;;;;;;5011692;28;20040;-79
2024/02/20 00:48:55;;;;;;;32.20;20.35;;;8.40;99.90;;;;;;5014285;28;20444;-78
2024/02/20 00:51:22;;;;;;;37.10;19.33;;;8.30;99.90;;;;;;5017333;28;20029;-79
2024/02/20 00:53:48;;;;;;;27.10;16.25;;;8.40;99.90;;;;;;5018008;28;20095;-79
2024/02/20 00:56:15;;;;;;;31.52;17.42;;;8.20;99.90;;;;;;5015549;28;20423;-80
2024/02/20 00:58:45;;;;;;;31.27;17.80;;;8.30;99.90;;;;;;5015900;28;20048;-81
2024/02/20 01:01:12;;;;;;;35.38;18.45;;;8.40;99.90;;;;;;5017021;28;20057;-83
2024/02/20 01:03:38;;;;;;;34.30;20.55;;;8.40;99.90;;;;;;5018126;28;20034;-79
2024/02/20 01:06:06;;;;;;;33.67;19.23;;;8.30;99.90;;;;;;5015977;28;20078;-79
2024/02/20 01:08:32;;;;;;;33.28;19.38;;;8.40;99.90;;;;;;5016516;28;20052;-81
2024/02/20 01:10:58;;;;;;;34.13;19.58;;;8.40;99.90;;;;;;5017666;28;20038;-81
2024/02/20 01:13:23;;;;;;;27.55;16.50;;;8.50;99.90;;;;;;5018528;28;20754;-81
2024/02/20 01:15:49;;;;;;;26.15;16.23;;;8.20;99.90;;;;;;5018148;28;20384;-82
2024/02/20 01:18:15;;;;;;;22.55;12.82;;;8.30;99.90;;;;;;5015898;28;20104;-81
2024/02/20 01:20:40;;;;;;;27.48;13.52;;;8.30;99.90;;;;;;5016901;28;20055;-79
2024/02/20 01:23:06;;;;;;;25.52;12.82;;;8.50;99.90;;;;;;5017293;28;20558;-79
2024/02/20 01:25:32;;;;;;;28.92;15.93;;;8.60;99.90;;;;;;5016361;28;20138;-79
2024/02/20 01:27:59;;;;;;;25.42;14.82;;;8.80;99.90;;;;;;5015946;28;20475;-81
2024/02/20 01:30:24;;;;;;;22.48;13.93;;;8.90;99.90;;;;;;5018069;28;20067;-79
2024/02/20 01:32:51;;;;;;;27.77;14.43;;;8.80;99.90;;;;;;5016483;28;20035;-79
2024/02/20 01:35:17;;;;;;;23.52;12.60;;;8.90;99.90;;;;;;5017361;28;20029;-79
2024/02/20 01:37:44;;;;;;;28.10;14.25;;;8.80;99.90;;;;;;5017165;28;20667;-78
2024/02/20 01:40:10;;;;;;;27.77;16.25;;;8.80;99.90;;;;;;5015646;28;20033;-79
2024/02/20 01:42:38;;;;;;;24.52;14.57;;;9.00;99.90;;;;;;5015971;28;20030;-79
2024/02/20 01:45:05;;;;;;;23.92;14.25;;;8.90;99.90;;;;;;5017992;28;20056;-79
2024/02/20 01:47:31;;;;;;;24.38;13.73;;;8.90;99.90;;;;;;5015213;28;20030;-79
2024/02/20 01:49:58;;;;;;;25.40;14.38;;;9.00;99.90;;;;;;5017068;28;20120;-79
2024/02/20 01:52:24;;;;;;;25.40;14.40;;;9.00;99.90;;;;;;5017048;28;20476;-80
2024/02/20 01:54:50;;;;;;;26.77;14.65;;;9.00;99.90;;;;;;5016984;28;20026;-79
2024/02/20 01:57:17;;;;;;;26.67;14.07;;;9.10;99.90;;;;;;5016057;28;20111;-79
2024/02/20 01:59:43;;;;;;;21.85;12.30;;;9.00;99.90;;;;;;5013980;28;20638;-79
2024/02/20 02:02:10;;;;;;;21.10;11.85;;;9.00;99.90;;;;;;5017674;28;20455;-79
2024/02/20 02:04:36;;;;;;;16.27;9.77;;;8.90;99.90;;;;;;5016570;28;20167;-78
2024/02/20 02:07:02;;;;;;;20.25;11.23;;;8.80;99.90;;;;;;5016791;28;20471;-81
2024/02/20 02:09:28;;;;;;;19.05;11.02;;;8.90;99.90;;;;;;5015496;28;20429;-79
2024/02/20 02:11:54;;;;;;;18.92;11.38;;;8.80;99.90;;;;;;5016879;28;20030;-81
2024/02/20 02:14:20;;;;;;;21.40;12.65;;;8.90;99.90;;;;;;5015189;28;20123;-78
2024/02/20 02:16:48;;;;;;;24.58;14.45;;;8.90;99.90;;;;;;5017629;28;20430;-81
2024/02/20 02:19:14;;;;;;;24.85;14.63;;;8.80;99.90;;;;;;5016451;28;20495;-79
2024/02/20 02:21:40;;;;;;;24.55;12.85;;;8.80;99.90;;;;;;5015011;28;20044;-79
2024/02/20 02:24:07;;;;;;;16.83;10.57;;;8.80;99.90;;;;;;5017042;28;20562;-80
2024/02/20 02:26:34;;;;;;;18.38;10.50;;;8.80;99.90;;;;;;5015261;28;21170;-79
2024/02/20 02:29:00;;;;;;;16.17;8.63;;;8.80;99.90;;;;;;5015272;28;20029;-79
2024/02/20 02:31:25;;;;;;;11.38;5.63;;;8.80;99.90;;;;;;5017026;28;20022;-78
2024/02/20 02:33:51;;;;;;;10.68;6.00;;;8.80;99.90;;;;;;5014813;28;20482;-79
2024/02/20 02:36:17;;;;;;;13.45;6.40;;;8.70;99.90;;;;;;5015673;28;20040;-80
2024/02/20 02:38:43;;;;;;;9.65;5.20;;;8.90;99.90;;;;;;5015804;28;20124;-82
2024/02/20 02:41:12;;;;;;;6.88;3.92;;;8.90;99.50;;;;;;5014276;28;20480;-79
2024/02/20 02:43:38;;;;;;;9.25;5.25;;;9.00;98.90;;;;;;5015167;28;20037;-79
2024/02/20 02:46:03;;;;;;;12.05;6.65;;;9.00;99.60;;;;;;5015229;28;20045;-79
2024/02/20 02:48:29;;;;;;;17.30;9.80;;;8.90;99.90;;;;;;5014218;28;20495;-79
2024/02/20 02:50:55;;;;;;;18.65;10.13;;;8.90;99.90;;;;;;5014142;28;20041;-79
2024/02/20 02:53:21;;;;;;;15.40;9.10;;;8.90;99.90;;;;;;5014920;28;20033;-79
2024/02/20 02:55:47;;;;;;;13.27;7.15;;;8.90;99.90;;;;;;5013663;28;20038;-79
2024/02/20 02:58:13;;;;;;;11.93;7.63;;;8.70;99.90;;;;;;5014382;28;20037;-80
2024/02/20 03:00:39;;;;;;;11.52;7.22;;;8.60;99.90;;;;;;5013950;28;20056;-79
2024/02/20 03:03:05;;;;;;;11.32;6.00;;;8.60;99.90;;;;;;5014953;28;21118;-82
2024/02/20 03:05:31;;;;;;;9.75;5.50;;;8.50;99.90;;;;;;5014810;28;20124;-81
2024/02/20 03:07:57;;;;;;;7.53;3.90;;;8.40;99.90;;;;;;5014144;28;20064;-79
2024/02/20 03:10:25;;;;;;;9.75;3.40;;;8.40;99.90;;;;;;5013872;28;20144;-81
2024/02/20 03:12:52;;;;;;;7.13;3.67;;;8.60;99.50;;;;;;5013786;28;20029;-81
2024/02/20 03:15:17;;;;;;;7.68;3.55;;;8.70;99.50;;;;;;5016505;28;20041;-79
2024/02/20 03:17:45;;;;;;;7.68;3.45;;;8.70;99.50;;;;;;5015383;28;20381;-79
2024/02/20 03:20:14;;;;;;;11.25;4.18;;;8.60;99.80;;;;;;5014742;28;20033;-79
2024/02/20 03:22:41;;;;;;;10.13;5.13;;;8.60;99.70;;;;;;5014698;28;20045;-80
2024/02/20 03:25:08;;;;;;;10.18;5.28;;;8.60;99.30;;;;;;5015509;28;20041;-79
2024/02/20 03:27:34;;;;;;;8.35;4.03;;;8.50;99.30;;;;;;5014338;28;20095;-79
2024/02/20 03:30:00;;;;;;;7.47;4.28;;;8.40;99.40;;;;;;5013528;28;20037;-78
2024/02/20 03:32:26;;;;;;;5.90;3.20;;;8.40;99.30;;;;;;5015494;28;20044;-81
2024/02/20 03:34:52;;;;;;;6.55;2.95;;;8.30;99.00;;;;;;5014633;28;20102;-79
2024/02/20 03:37:18;;;;;;;11.10;3.78;;;8.30;98.80;;;;;;5013584;28;20029;-80
2024/02/20 03:39:43;;;;;;;7.00;3.03;;;8.40;98.70;;;;;;5014223;28;20484;-79
2024/02/20 03:42:09;;;;;;;6.38;2.92;;;8.50;98.50;;;;;;5013835;28;20111;-78
2024/02/20 03:44:39;;;;;;;4.82;2.17;;;8.70;98.20;;;;;;5013208;28;20045;-79
2024/02/20 03:47:05;;;;;;;4.47;2.33;;;8.60;98.80;;;;;;5015903;28;20029;-80
2024/02/20 03:49:31;;;;;;;4.95;2.30;;;8.60;97.70;;;;;;5014981;28;20071;-81
2024/02/20 03:51:57;;;;;;;5.03;2.17;;;8.60;97.80;;;;;;5014279;28;20124;-82
2024/02/20 03:54:22;;;;;;;6.55;2.60;;;8.70;97.80;;;;;;5014114;28;20029;-82
2024/02/20 03:56:48;;;;;;;8.48;3.05;;;8.60;97.80;;;;;;5013803;28;20037;-78
2024/02/20 03:59:14;;;;;;;5.93;2.55;;;8.60;97.90;;;;;;5012887;28;20102;-79
2024/02/20 04:01:39;;;;;;;6.55;2.28;;;8.70;97.60;;;;;;5013956;28;20391;-79
2024/02/20 04:04:05;;;;;;;3.88;1.83;;;8.80;97.20;;;;;;5009407;28;20037;-81
2024/02/20 04:06:32;;;;;;;5.40;1.70;;;8.70;97.30;;;;;;5009249;28;20761;-82
2024/02/20 04:09:03;;;;;;;3.60;1.75;;;8.60;98.60;;;;;;5010026;28;20076;-80
2024/02/20 04:11:32;;;;;;;5.47;3.10;;;8.50;98.70;;;;;;5009957;28;20502;-79
2024/02/20 04:13:58;;;;;;;5.40;2.38;;;8.30;98.40;;;;;;5008524;28;20047;-81
2024/02/20 04:16:24;;;;;;;5.35;2.50;;;8.40;98.30;;;;;;5010627;28;20045;-79
2024/02/20 04:18:49;;;;;;;5.03;2.33;;;8.40;98.00;;;;;;5005854;28;20048;-79
2024/02/20 04:21:15;;;;;;;5.68;2.75;;;8.40;98.20;;;;;;5005471;28;20123;-78
2024/02/20 04:23:41;;;;;;;5.60;3.17;;;8.30;98.20;;;;;;5008353;28;20069;-78
2024/02/20 04:26:06;;;;;;;7.03;3.70;;;8.40;98.40;;;;;;5009842;28;20545;-78
2024/02/20 04:28:35;;;;;;;7.57;4.30;;;8.40;98.60;;;;;;5009525;28;20567;-78
2024/02/20 04:31:04;;;;;;;7.32;3.55;;;8.40;98.40;;;;;;5011131;28;20049;-81
2024/02/20 04:33:30;;;;;;;5.78;2.47;;;8.50;98.40;;;;;;5010797;28;20036;-81
2024/02/20 04:35:56;;;;;;;4.93;2.05;;;8.40;98.70;;;;;;5009923;28;20556;-82
2024/02/20 04:38:22;;;;;;;6.13;1.98;;;8.30;98.40;;;;;;5009291;28;20087;-81
2024/02/20 04:40:49;;;;;;;3.10;1.60;;;8.40;98.30;;;;;;5011334;28;20032;-81
2024/02/20 04:43:15;;;;;;;5.18;2.20;;;8.50;97.90;;;;;;5009926;28;20136;-82
2024/02/20 04:45:40;;;;;;;4.35;2.17;;;8.60;97.70;;;;;;5008381;28;20045;-81
2024/02/20 04:48:07;;;;;;;4.70;1.75;;;8.70;97.10;;;;;;5003859;28;20107;-81
2024/02/20 04:50:33;;;;;;;6.95;2.05;;;8.80;97.30;;;;;;5006169;28;20046;-81
2024/02/20 04:52:59;;;;;;;4.40;2.08;;;8.70;97.40;;;;;;5005995;28;21228;-78
2024/02/20 04:55:28;;;;;;;5.00;2.65;;;8.80;97.20;;;;;;5008434;28;20033;-79
2024/02/20 04:57:54;;;;;;;6.45;3.15;;;8.80;97.40;;;;;;5008234;28;20017;-79
2024/02/20 05:00:20;;;;;;;6.70;3.17;;;8.70;97.40;;;;;;5006987;28;20661;-79
2024/02/20 05:02:46;;;;;;;3.55;1.90;;;8.60;97.50;;;;;;5008148;28;20097;-78
2024/02/20 05:05:12;;;;;;;6.47;2.33;;;8.50;97.50;;;;;;5006533;28;20496;-79
2024/02/20 05:07:38;;;;;;;5.25;2.42;;;8.50;97.50;;;;;;5005482;28;21224;-79
2024/02/20 05:10:06;;;;;;;4.85;2.17;;;8.40;97.50;;;;;;5007284;28;20115;-79
2024/02/20 05:12:33;;;;;;;5.60;2.25;;;8.50;97.60;;;;;;5005829;28;20653;-81
2024/02/20 05:14:58;;;;;;;6.90;2.80;;;8.40;97.80;;;;;;5006274;28;20060;-79
2024/02/20 05:17:24;;;;;;;7.00;3.15;;;8.40;97.90;;;;;;5007431;28;20095;-79
2024/02/20 05:19:50;;;;;;;9.43;4.00;;;8.40;98.20;;;;;;5006217;28;20065;-80
2024/02/20 05:22:17;;;;;;;6.35;3.45;;;8.30;98.60;;;;;;5006787;28;20061;-80
2024/02/20 05:24:46;;;;;;;7.68;3.58;;;8.20;99.20;;;;;;5006845;28;20081;-80
2024/02/20 05:27:12;;;;;;;5.75;2.58;;;8.20;98.80;;;;;;5006316;28;20038;-80
2024/02/20 05:29:38;;;;;;;4.18;2.10;;;8.10;98.00;;;;;;5004813;28;20209;-79
2024/02/20 05:32:04;;;;;;;4.07;1.88;;;8.00;97.90;;;;;;5006798;28;20056;-79
2024/02/20 05:34:30;;;;;;;3.72;1.67;;;7.70;98.40;;;;;;5006943;28;20150;-79
2024/02/20 05:36:55;;;;;;;4.32;1.75;;;7.70;98.10;;;;;;5009162;28;20049;-79
2024/02/20 05:39:21;;;;;;;3.25;1.50;;;7.60;97.90;;;;;;5010443;28;20040;-81
2024/02/20 05:41:47;;;;;;;2.95;1.33;;;7.60;98.00;;;;;;5010781;28;20117;-79
2024/02/20 05:44:13;;;;;;;3.78;1.63;;;7.60;98.00;;;;;;5010153;28;22226;-79
2024/02/20 05:46:40;;;;;;;4.68;1.58;;;7.60;97.90;;;;;;5011090;28;20033;-78
2024/02/20 05:49:05;;;;;;;2.95;1.40;;;7.50;97.90;;;;;;5007598;28;20032;-81
2024/02/20 05:51:33;;;;;;;4.35;1.65;;;7.50;97.70;;;;;;5009413;28;20498;-79
2024/02/20 05:53:59;;;;;;;3.47;1.33;;;7.80;97.10;;;;;;5008495;28;20033;-79
2024/02/20 05:56:25;;;;;;;4.10;1.08;;;7.90;96.80;;;;;;5010068;28;20038;-80
2024/02/20 05:58:51;;;;;;;2.13;0.93;;;7.80;96.70;;;;;;5009420;28;20659;-79
2024/02/20 06:01:17;;;;;;;3.78;1.20;;;7.90;96.70;;;;;;5008544;28;20685;-79
2024/02/20 06:03:44;;;;;;;2.75;1.30;;;7.80;96.90;;;;;;5009289;28;20037;-80
2024/02/20 06:06:11;;;;;;;2.05;1.10;;;7.80;96.90;;;;;;5010932;28;20506;-80
2024/02/20 06:08:42;;;;;;;2.92;1.10;;;7.70;96.80;;;;;;5010313;28;20137;-79
2024/02/20 06:11:18;;;;;;;3.42;1.60;;;7.40;97.50;;;;;;5010319;28;20427;-79
2024/02/20 06:13:44;;;;;;;3.35;1.65;;;7.40;97.50;;;;;;5009487;28;20049;-79
2024/02/20 06:16:10;;;;;;;2.60;1.42;;;7.50;97.40;;;;;;5009261;28;20041;-80
2024/02/20 06:18:37;;;;;;;2.90;1.48;;;7.40;97.70;;;;;;5012026;28;20059;-84
2024/02/20 06:21:04;;;;;;;3.22;1.27;;;7.60;97.30;;;;;;5018202;28;20048;-81
2024/02/20 06:23:30;;;;;;;3.80;1.30;;;7.70;97.10;;;;;;5011901;28;20037;-78
2024/02/20 06:25:56;;;;;;;3.60;1.45;;;7.80;96.70;;;;;;5008264;28;20038;-78
2024/02/20 06:28:21;;;;;;;2.47;1.20;;;8.00;97.00;;;;;;5008641;28;20037;-81
2024/02/20 06:30:47;;;;;;;3.53;1.60;;;7.80;97.00;;;;;;5007510;28;20059;-81
2024/02/20 06:33:14;;;;;;;3.38;1.50;;;7.70;97.00;;;;;;5008046;28;20061;-79
2024/02/20 06:35:41;;;;;;;3.58;1.38;;;7.80;96.80;;;;;;5007469;28;20041;-80
2024/02/20 06:38:07;;;;;;;3.47;1.55;;;8.00;96.40;;;;;;5009230;28;20037;-78
2024/02/20 06:40:33;;;;;;;2.53;1.15;;;7.60;97.60;;;;;;5009752;28;20033;-78
2024/02/20 06:42:59;;;;;;;3.03;1.20;;;7.50;97.30;;;;;;5008047;28;21076;-78
2024/02/20 06:45:25;;;;;;;2.65;1.33;;;7.60;97.30;;;;;;5016285;28;20944;-83
2024/02/20 06:47:51;;;;;;;4.75;1.92;;;7.50;97.60;;;;;;5013153;28;20136;-80
2024/02/20 06:50:17;;;;;;;4.32;1.73;;;7.60;97.40;;;;;;5009902;28;20677;-80
2024/02/20 06:52:46;;;;;;;5.90;2.15;;;7.70;97.10;;;;;;5012912;28;20044;-79
2024/02/20 06:55:11;;;;;;;6.13;1.60;;;7.70;97.20;;;;;;5010611;28;20033;-80
2024/02/20 06:57:40;;;;;;;3.83;1.40;;;7.90;96.70;;;;;;5008552;28;20431;-80
2024/02/20 07:00:14;;;;;;;2.85;1.27;;;7.80;97.00;;;;;;5007759;28;20029;-81
2024/02/20 07:02:44;;;;;;;4.35;1.48;;;7.60;97.60;;;;;;5009789;28;20075;-81
2024/02/20 07:05:11;;;;;;;2.53;0.85;;;7.60;97.30;;;;;;5009532;28;20045;-81
2024/02/20 07:07:37;;;;;;;2.97;1.40;;;7.50;97.70;;;;;;5008191;28;20032;-81
2024/02/20 07:10:04;;;;;;;3.47;1.38;;;7.60;97.30;;;;;;5007565;28;20053;-81
2024/02/20 07:12:30;;;;;;;3.13;1.63;;;7.60;97.40;;;;;;5008981;28;20175;-81
2024/02/20 07:14:56;;;;;;;4.25;1.90;;;7.50;97.70;;;;;;5007847;28;20037;-80
2024/02/20 07:17:22;;;;;;;5.70;2.05;;;7.40;97.70;;;;;;5007691;28;20716;-80
2024/02/20 07:19:48;;;;;;;4.55;1.90;;;7.30;98.20;;;;;;5008029;28;20033;-80
2024/02/20 07:22:13;;;;;;;3.63;1.27;;;7.50;97.30;;;;;;5007708;28;20661;-80
2024/02/20 07:24:39;;;;;;;3.85;1.10;;;7.70;97.10;;;;;;5007934;28;20045;-80
2024/02/20 07:27:05;;;;;;;5.32;1.20;;;7.70;97.20;;;;;;5009709;28;20487;-80
2024/02/20 07:29:31;;;;;;;3.47;1.40;;;8.00;96.70;;;;;;5009249;28;20111;-80
2024/02/20 07:31:56;;;;;;;2.67;1.23;;;7.90;96.80;;;;;;5008465;28;20029;-80
2024/02/20 07:34:22;;;;;;;3.95;1.63;;;7.90;97.00;;;;;;5010293;28;20052;-79
2024/02/20 07:36:48;;;;;;;3.35;1.27;;;8.00;96.90;;;;;;5008724;28;20120;-80
2024/02/20 07:39:14;;;;;;;3.85;1.40;;;7.90;97.40;;;;;;5008552;28;20099;-80
2024/02/20 07:41:40;;;;;;;4.10;2.05;;;7.80;97.30;;;;;;5009280;28;20025;-80
2024/02/20 07:44:06;;;;;;;6.50;2.70;;;7.70;98.00;;;;;;5006965;28;20376;-79
2024/02/20 07:46:32;;;;;;;8.70;2.30;;;7.50;99.00;;;;;;5007330;28;20050;-79
2024/02/20 07:48:59;;;;;;;3.17;1.50;;;7.40;98.60;;;;;;5008816;28;20977;-79
2024/02/20 07:51:25;;;;;;;3.13;1.30;;;7.70;97.50;;;;;;5006712;28;20104;-79
2024/02/20 07:53:51;;;;;;;2.92;1.20;;;8.00;97.00;;;;;;5007529;28;20136;-79
2024/02/20 07:56:27;;;;;;;2.85;1.10;;;8.00;96.90;;;;;;5008316;28;20037;-80
2024/02/20 07:58:53;;;;;;;2.90;1.08;;;8.00;97.10;;;;;;5008637;28;20840;-80
2024/02/20 08:01:19;;;;;;;3.60;1.42;;;8.00;97.10;;;;;;5009798;28;20029;-80
2024/02/20 08:03:47;;;;;;;4.82;1.88;;;8.00;97.90;;;;;;5007761;28;20034;-79
2024/02/20 08:06:13;;;;;;;4.93;1.73;;;7.80;98.10;;;;;;5009442;28;20216;-81
2024/02/20 08:08:38;;;;;;;3.47;1.65;;;7.80;98.50;;;;;;5012274;28;20152;-79
2024/02/20 08:11:04;;;;;;;3.35;1.17;;;7.70;98.60;;;;;;5012560;28;21681;-80
2024/02/20 08:13:30;;;;;;;3.25;1.33;;;7.70;98.30;;;;;;5013464;28;20041;-80
2024/02/20 08:15:58;;;;;;;4.40;1.20;;;7.60;98.10;;;;;;5014808;28;20045;-79
2024/02/20 08:18:24;;;;;;;4.20;1.20;;;7.80;97.70;;;;;;5013983;28;20041;-79
2024/02/20 08:20:49;;;;;;;2.22;0.82;;;7.90;97.60;;;;;;5011316;28;20570;-78
2024/02/20 08:23:15;;;;;;;2.55;0.90;;;8.10;97.80;;;;;;5012377;28;20040;-79
2024/02/20 08:25:41;;;;;;;3.50;1.00;;;8.10;97.40;;;;;;5012229;28;20049;-79
2024/02/20 08:28:07;;;;;;;3.75;1.00;;;8.30;98.20;;;;;;5010775;28;20090;-80
2024/02/20 08:30:33;;;;;;;1.85;0.80;;;8.40;96.90;;;;;;5013245;28;20388;-80
2024/02/20 08:32:59;;;;;;;5.00;2.20;;;8.40;96.70;;;;;;5011196;28;20527;-79
2024/02/20 08:35:24;;;;;;;12.48;3.15;;;8.20;98.00;;;;;;5013112;28;20030;-80
2024/02/20 08:37:50;;;;;;;6.97;3.80;;;8.10;98.80;;;;;;5011580;28;20044;-79
2024/02/20 08:40:16;;;;;;;5.88;3.08;;;8.00;99.00;;;;;;5010593;28;20033;-80
2024/02/20 08:42:41;;;;;;;9.82;3.20;;;8.00;99.30;;;;;;5012109;28;20052;-80
2024/02/20 08:45:08;;;;;;;6.25;2.72;;;8.30;97.70;;;;;;5010133;28;20045;-80
2024/02/20 08:47:35;;;;;;;3.38;1.42;;;8.50;97.80;;;;;;5010779;28;20032;-81
2024/02/20 08:50:01;;;;;;;2.88;1.40;;;8.70;97.50;;;;;;5012035;28;20030;-80
2024/02/20 08:52:26;;;;;;;2.42;0.90;;;9.00;96.80;;;;;;5010212;28;20518;-78
2024/02/20 08:54:52;;;;;;;2.10;1.20;;;9.10;96.90;;;;;;5010622;28;20087;-79
2024/02/20 08:57:17;;;;;;;4.90;2.08;;;9.30;96.10;;;;;;5012069;28;20041;-76
2024/02/20 08:59:45;;;;;;;6.22;2.67;;;9.20;97.70;;;;;;5009671;28;20040;-78
2024/02/20 09:02:10;;;;;;;6.07;2.50;;;9.30;97.70;;;;;;5009592;28;20022;-77
2024/02/20 09:04:37;;;;;;;5.22;2.10;;;9.40;97.20;;;;;;5011394;28;20037;-77
2024/02/20 09:07:03;;;;;;;6.47;2.15;;;9.50;97.10;;;;;;5010274;28;20029;-77
2024/02/20 09:09:28;;;;;;;4.13;1.75;;;9.60;97.30;;;;;;5008810;28;20695;-76
2024/02/20 09:11:54;;;;;;;3.42;1.17;;;9.70;97.10;;;;;;5013838;28;20080;-76
2024/02/20 09:14:20;;;;;;;7.53;1.88;;;9.90;96.40;;;;;;5014378;28;20030;-77
2024/02/20 09:16:47;;;;;;;4.70;1.65;;;10.10;97.00;;;;;;5013111;28;20747;-77
2024/02/20 09:19:13;;;;;;;4.53;1.33;;;10.20;97.40;;;;;;5013748;28;20113;-76
2024/02/20 09:21:39;;;;;;;18.05;2.55;;;10.20;96.60;;;;;;5014565;28;20037;-79
2024/02/20 09:24:05;;;;;;;9.80;2.08;;;11.20;99.50;;;;;;5012808;28;20515;-78
2024/02/20 09:26:31;;;;;;;3.28;1.25;;;10.90;96.70;;;;;;5014395;28;20045;-77
2024/02/20 09:28:56;;;;;;;3.10;1.52;;;10.60;96.70;;;;;;5014684;28;20033;-78
2024/02/20 09:31:22;;;;;;;4.38;1.70;;;10.40;97.00;;;;;;5013445;28;20040;-79
2024/02/20 09:33:48;;;;;;;7.70;3.17;;;10.20;97.40;;;;;;5013478;28;20041;-78
2024/02/20 09:36:14;;;;;;;4.28;1.80;;;10.00;97.50;;;;;;5014024;28;20554;-79
2024/02/20 09:38:40;;;;;;;9.48;2.90;;;10.00;97.10;;;;;;5013360;28;20033;-78
2024/02/20 09:41:07;;;;;;;6.95;2.90;;;9.90;97.90;;;;;;5014146;28;20045;-79
2024/02/20 09:43:33;;;;;;;7.20;2.20;;;10.00;97.60;;;;;;5014034;28;20073;-76
2024/02/20 09:46:07;;;;;;;4.95;2.00;;;10.90;99.90;;;;;;5012492;28;20045;-79
2024/02/20 09:48:34;;;;;;;6.25;1.80;;;10.70;96.70;;;;;;5012620;28;20038;-77
2024/02/20 09:51:01;;;;;;;5.22;1.98;;;10.50;96.50;;;;;;5013910;28;20525;-75
2024/02/20 09:53:30;;;;;;;3.65;1.45;;;10.50;96.30;;;;;;5012204;28;20150;-79
2024/02/20 09:55:57;;;;;;;2.63;1.30;;;10.40;96.10;;;;;;5012974;28;20099;-78
2024/02/20 09:58:23;;;;;;;4.30;1.10;;;10.50;95.90;;;;;;5012683;28;20153;-77
2024/02/20 10:00:53;;;;;;;4.13;1.25;;;10.50;96.00;;;;;;5012518;28;20037;-77
2024/02/20 10:03:19;;;;;;;14.32;10.63;;;10.60;95.70;;;;;;5013589;28;20515;-78
2024/02/20 10:05:45;;;;;;;49.83;37.08;;;10.80;95.10;;;;;;5012212;28;20045;-78
2024/02/20 10:08:11;;;;;;;102.10;63.13;;;10.90;95.70;;;;;;5012344;28;20041;-77
2024/02/20 10:10:38;;;;;;;126.85;77.63;;;11.00;95.70;;;;;;5013399;28;20041;-77
2024/02/20 10:13:04;;;;;;;95.60;57.60;;;11.10;95.60;;;;;;5012758;28;20064;-76
2024/02/20 10:15:30;;;;;;;67.90;42.13;;;11.10;95.20;;;;;;5011517;28;20442;-77
2024/02/20 10:18:03;;;;;;;28.52;18.20;;;11.10;95.50;;;;;;5012892;28;20029;-76
2024/02/20 10:20:30;;;;;;;16.27;12.00;;;11.10;95.20;;;;;;5013421;28;20665;-78
2024/02/20 10:23:09;;;;;;;10.23;7.15;;;11.30;95.20;;;;;;5010850;28;20052;-76
2024/02/20 10:25:37;;;;;;;9.88;6.90;;;11.70;95.20;;;;;;5010778;28;20038;-77
2024/02/20 10:28:06;;;;;;;8.18;6.47;;;11.90;95.20;;;;;;5011741;28;26240;-76
2024/02/20 10:30:32;;;;;;;4.90;2.78;;;11.80;94.60;;;;;;5010034;28;20041;-76
2024/02/20 10:32:59;;;;;;;3.33;1.70;;;11.70;94.70;;;;;;5012409;28;20037;-76
2024/02/20 10:35:25;;;;;;;7.93;1.65;;;11.80;94.70;;;;;;5011469;28;20095;-76
2024/02/20 10:38:02;;;;;;;1.95;1.02;;;11.90;94.30;;;;;;5012853;28;20038;-76
2024/02/20 10:40:28;;;;;;;2.17;1.10;;;12.00;94.40;;;;;;5012965;28;20627;-76
2024/02/20 10:42:57;;;;;;;1.52;0.70;;;12.30;94.00;;;;;;5011821;28;20041;-77
2024/02/20 10:45:24;;;;;;;3.72;0.70;;;12.40;93.80;;;;;;5012839;28;20177;-76
2024/02/20 10:47:52;;;;;;;3.15;1.00;;;12.40;93.70;;;;;;5011657;28;20033;-76
2024/02/20 10:50:19;;;;;;;4.10;0.88;;;12.50;94.20;;;;;;5010808;28;20144;-76
2024/02/20 10:52:45;;;;;;;9.88;5.30;;;12.50;93.60;;;;;;5012852;28;20042;-76
2024/02/20 10:55:11;;;;;;;8.77;2.50;;;12.50;93.80;;;;;;5009942;28;20065;-77
2024/02/20 10:57:39;;;;;;;3.83;1.73;;;12.70;93.70;;;;;;5010960;28;20561;-76
2024/02/20 11:00:10;;;;;;;1.95;0.85;;;12.90;93.20;;;;;;5011936;28;20046;-76
2024/02/20 11:02:41;;;;;;;2.38;0.88;;;13.00;94.00;;;;;;5012155;28;20532;-76
2024/02/20 11:05:13;;;;;;;1.45;0.52;;;13.10;93.00;;;;;;5010997;28;20067;-76
2024/02/20 11:07:39;;;;;;;1.98;0.77;;;13.00;92.80;;;;;;5008943;28;20049;-76
2024/02/20 11:10:08;;;;;;;2.15;0.60;;;13.20;92.90;;;;;;5009747;28;20459;-76
2024/02/20 11:12:34;;;;;;;2.65;0.88;;;13.10;92.80;;;;;;5012893;28;20037;-76
2024/02/20 11:15:17;;;;;;;21.17;12.35;;;13.30;93.10;;;;;;5012608;28;20098;-76
2024/02/20 11:17:42;;;;;;;6.03;2.25;;;13.50;91.40;;;;;;5013004;28;20144;-76
2024/02/20 11:20:16;;;;;;;8.35;3.15;;;13.40;91.80;;;;;;5010797;28;20047;-76
2024/02/20 11:22:44;;;;;;;4.32;2.47;;;13.70;92.30;;;;;;5011512;28;20033;-76
2024/02/20 11:25:28;;;;;;;4.82;2.40;;;13.80;91.40;;;;;;5012439;28;20476;-76
2024/02/20 11:27:54;;;;;;;1.20;0.70;;;13.80;91.40;;;;;;5012618;28;20491;-76
2024/02/20 11:30:24;;;;;;;1.33;0.50;;;13.90;91.00;;;;;;5010455;28;20086;-76
2024/02/20 11:32:55;;;;;;;0.35;0.20;;;14.00;90.50;;;;;;5010623;28;20438;-75
2024/02/20 11:35:25;;;;;;;0.82;0.35;;;14.10;90.10;;;;;;5012374;28;20128;-75
2024/02/20 11:37:55;;;;;;;1.10;0.40;;;14.20;90.50;;;;;;5010238;28;20125;-76
2024/02/20 11:40:25;;;;;;;2.28;0.60;;;14.30;90.50;;;;;;5008899;28;20450;-75
2024/02/20 11:42:54;;;;;;;1.77;0.50;;;14.40;90.80;;;;;;5007698;28;20041;-76
2024/02/20 11:45:21;;;;;;;1.77;0.85;;;14.60;90.60;;;;;;5008192;28;20052;-76
2024/02/20 11:47:59;;;;;;;1.92;1.15;;;14.90;90.60;;;;;;5007637;28;20039;-76
2024/02/20 11:50:27;;;;;;;0.57;0.38;;;15.10;90.40;;;;;;5007697;28;20104;-75
2024/02/20 11:53:03;;;;;;;0.32;0.30;;;15.10;90.20;;;;;;5007748;28;20037;-76
2024/02/20 11:55:32;;;;;;;2.70;0.82;;;15.10;89.30;;;;;;5010837;28;20034;-76
2024/02/20 11:57:58;;;;;;;2.97;0.80;;;15.30;89.50;;;;;;5011344;28;20025;-76
2024/02/20 12:00:24;;;;;;;2.28;0.98;;;15.50;89.00;;;;;;5010065;28;20351;-75
2024/02/20 12:02:51;;;;;;;1.35;0.57;;;15.50;89.10;;;;;;5009946;28;20510;-76
2024/02/20 12:05:23;;;;;;;2.65;0.80;;;15.60;90.00;;;;;;5008387;28;20132;-76
2024/02/20 12:07:49;;;;;;;1.42;0.50;;;15.30;90.20;;;;;;5007091;28;20126;-77
2024/02/20 12:10:18;;;;;;;1.33;0.40;;;15.20;90.30;;;;;;5008296;28;20136;-77
2024/02/20 12:12:44;;;;;;;0.45;0.25;;;15.20;90.00;;;;;;5008389;28;20041;-76
2024/02/20 12:15:13;;;;;;;0.77;0.45;;;15.20;88.30;;;;;;5007584;28;20029;-75
2024/02/20 12:17:48;;;;;;;1.92;0.30;;;15.30;88.40;;;;;;5007164;28;20060;-75
2024/02/20 12:20:14;;;;;;;0.75;0.20;;;15.40;87.10;;;;;;5008863;28;20038;-75
2024/02/20 12:22:41;;;;;;;0.20;0.10;;;15.40;85.10;;;;;;5011104;28;20493;-75
2024/02/20 12:25:11;;;;;;;0.73;0.20;;;15.40;85.30;;;;;;5009778;28;20045;-76
2024/02/20 12:27:37;;;;;;;1.50;0.30;;;15.60;87.10;;;;;;5009315;28;20045;-76
2024/02/20 12:30:05;;;;;;;0.55;0.10;;;15.60;85.70;;;;;;5011483;28;20022;-77
2024/02/20 12:32:31;;;;;;;0.68;0.20;;;15.40;84.60;;;;;;5009350;28;20112;-78
2024/02/20 12:34:57;;;;;;;1.13;0.30;;;15.50;85.60;;;;;;5009346;28;20142;-75
2024/02/20 12:37:24;;;;;;;0.65;0.13;;;15.60;86.40;;;;;;5010431;28;20037;-77
2024/02/20 12:39:51;;;;;;;1.50;0.28;;;15.50;84.80;;;;;;5010003;28;20034;-77
2024/02/20 12:42:16;;;;;;;0.38;0.08;;;15.50;85.90;;;;;;5009855;28;20025;-78
2024/02/20 12:44:42;;;;;;;0.15;0.00;;;15.60;84.30;;;;;;5010155;28;20044;-78